Disclaimer

Please do not use the information listed here in-flight or in-navigation, as they are not provided to us by the airports but are provided by volunteers, so they might be outdated.

Search


Regions


Airport information page

Radio informations:
Tower (TWR) - 119.3 MHz
Approach (APP) - 119.9 MHz

Airport informations:
Latitude: 51° 50' 28.57" N
Longitude: 008° 29' 28.00" W
Elevation: 502 feet - 153 meters
Operating hours: 24 hour operations
Operating agency: Civil government, landing fees and diplomatic clearance may be required
Timezone: UTC 0(+1DT) - Last Sunday in March to last Sunday in October
Fuel: N/A

Runway information:
07/25 - 4298 x 148 feet< - >1310 x 45 meters
17/35 - 6998 x 148 feet< - >2133 x 45 meters

Recent METARs:
EICK 181900Z 08010KT 9999 FEW018 08/06 Q1023 NOSIG
EICK 181930Z 08011KT 9999 FEW017 07/06 Q1023 NOSIG
EICK 182000Z 08014KT 9999 FEW017 07/06 Q1023 NOSIG

Airport on the map: